sensor_id;sensor_type;location;lat;lon;timestamp;pressure;altitude;pressure_sealevel;temperature
78905;BMP280;68291;49.602;8.722;2023-07-28T00:01:09;98771.06;;;20.62
78905;BMP280;68291;49.602;8.722;2023-07-28T00:03:47;98771.34;;;20.59
78905;BMP280;68291;49.602;8.722;2023-07-28T00:06:25;98769.56;;;20.60
78905;BMP280;68291;49.602;8.722;2023-07-28T00:09:06;98779.19;;;20.59
78905;BMP280;68291;49.602;8.722;2023-07-28T00:12:00;98765.72;;;20.54
78905;BMP280;68291;49.602;8.722;2023-07-28T00:14:54;98764.22;;;20.52
78905;BMP280;68291;49.602;8.722;2023-07-28T00:17:25;98769.31;;;20.53
78905;BMP280;68291;49.602;8.722;2023-07-28T00:20:23;98760.47;;;20.54
78905;BMP280;68291;49.602;8.722;2023-07-28T00:23:03;98766.25;;;20.58
78905;BMP280;68291;49.602;8.722;2023-07-28T00:25:37;98765.16;;;20.60
78905;BMP280;68291;49.602;8.722;2023-07-28T00:28:40;98760.16;;;20.57
78905;BMP280;68291;49.602;8.722;2023-07-28T00:31:30;98761.28;;;20.55
78905;BMP280;68291;49.602;8.722;2023-07-28T00:34:02;98762.09;;;20.55
78905;BMP280;68291;49.602;8.722;2023-07-28T00:36:57;98755.25;;;20.54
78905;BMP280;68291;49.602;8.722;2023-07-28T00:39:43;98747.41;;;20.54
78905;BMP280;68291;49.602;8.722;2023-07-28T00:42:32;98751.00;;;20.53
78905;BMP280;68291;49.602;8.722;2023-07-28T00:45:35;98753.75;;;20.52
78905;BMP280;68291;49.602;8.722;2023-07-28T00:48:22;98750.31;;;20.51
78905;BMP280;68291;49.602;8.722;2023-07-28T00:51:07;98749.19;;;20.54
78905;BMP280;68291;49.602;8.722;2023-07-28T00:53:47;98748.06;;;20.56
78905;BMP280;68291;49.602;8.722;2023-07-28T00:56:43;98739.25;;;20.57
78905;BMP280;68291;49.602;8.722;2023-07-28T00:59:54;98747.09;;;20.57
78905;BMP280;68291;49.602;8.722;2023-07-28T01:02:47;98744.47;;;20.57
78905;BMP280;68291;49.602;8.722;2023-07-28T01:05:46;98753.97;;;20.58
78905;BMP280;68291;49.602;8.722;2023-07-28T01:08:49;98745.47;;;20.56
78905;BMP280;68291;49.602;8.722;2023-07-28T01:11:52;98729.63;;;20.58
78905;BMP280;68291;49.602;8.722;2023-07-28T01:14:33;98747.78;;;20.59
78905;BMP280;68291;49.602;8.722;2023-07-28T01:17:05;98742.44;;;20.60
78905;BMP280;68291;49.602;8.722;2023-07-28T01:19:55;98728.53;;;20.60
78905;BMP280;68291;49.602;8.722;2023-07-28T01:22:58;98745.72;;;20.62
78905;BMP280;68291;49.602;8.722;2023-07-28T01:26:08;98746.66;;;20.61
78905;BMP280;68291;49.602;8.722;2023-07-28T01:28:57;98746.84;;;20.60
78905;BMP280;68291;49.602;8.722;2023-07-28T01:31:40;98744.22;;;20.60
78905;BMP280;68291;49.602;8.722;2023-07-28T01:34:22;98726.59;;;20.62
78905;BMP280;68291;49.602;8.722;2023-07-28T01:36:52;98739.50;;;20.63
78905;BMP280;68291;49.602;8.722;2023-07-28T01:39:29;98746.53;;;20.63
78905;BMP280;68291;49.602;8.722;2023-07-28T01:42:06;98749.97;;;20.63
78905;BMP280;68291;49.602;8.722;2023-07-28T01:45:19;98739.81;;;20.60
78905;BMP280;68291;49.602;8.722;2023-07-28T01:47:52;98744.91;;;20.62
78905;BMP280;68291;49.602;8.722;2023-07-28T01:50:27;98750.13;;;20.62
78905;BMP280;68291;49.602;8.722;2023-07-28T01:53:08;98745.72;;;20.62
78905;BMP280;68291;49.602;8.722;2023-07-28T01:55:50;98756.03;;;20.64
78905;BMP280;68291;49.602;8.722;2023-07-28T01:58:21;98744.44;;;20.66
78905;BMP280;68291;49.602;8.722;2023-07-28T02:00:54;98750.50;;;20.67
78905;BMP280;68291;49.602;8.722;2023-07-28T02:03:36;98752.13;;;20.68
78905;BMP280;68291;49.602;8.722;2023-07-28T02:06:13;98741.66;;;20.68
78905;BMP280;68291;49.602;8.722;2023-07-28T02:08:56;98745.56;;;20.64
78905;BMP280;68291;49.602;8.722;2023-07-28T02:11:52;98750.53;;;20.58
78905;BMP280;68291;49.602;8.722;2023-07-28T02:14:27;98746.41;;;20.55
78905;BMP280;68291;49.602;8.722;2023-07-28T02:17:53;98743.16;;;20.53
78905;BMP280;68291;49.602;8.722;2023-07-28T02:20:28;98747.41;;;20.54
78905;BMP280;68291;49.602;8.722;2023-07-28T02:23:24;98740.53;;;20.53
78905;BMP280;68291;49.602;8.722;2023-07-28T02:25:58;98748.97;;;20.47
78905;BMP280;68291;49.602;8.722;2023-07-28T02:28:35;98737.69;;;20.47
78905;BMP280;68291;49.602;8.722;2023-07-28T02:31:08;98748.81;;;20.49
78905;BMP280;68291;49.602;8.722;2023-07-28T02:33:46;98737.53;;;20.48
78905;BMP280;68291;49.602;8.722;2023-07-28T02:36:15;98738.88;;;20.52
78905;BMP280;68291;49.602;8.722;2023-07-28T02:38:56;98736.25;;;20.52
78905;BMP280;68291;49.602;8.722;2023-07-28T02:41:37;98742.47;;;20.51
78905;BMP280;68291;49.602;8.722;2023-07-28T02:44:20;98750.31;;;20.51
78905;BMP280;68291;49.602;8.722;2023-07-28T02:46:59;98740.00;;;20.50
78905;BMP280;68291;49.602;8.722;2023-07-28T02:49:42;98748.38;;;20.53
78905;BMP280;68291;49.602;8.722;2023-07-28T02:52:34;98745.59;;;20.55
78905;BMP280;68291;49.602;8.722;2023-07-28T02:55:09;98741.19;;;20.55
78905;BMP280;68291;49.602;8.722;2023-07-28T02:57:52;98751.81;;;20.54
78905;BMP280;68291;49.602;8.722;2023-07-28T03:00:37;98740.13;;;20.48
78905;BMP280;68291;49.602;8.722;2023-07-28T03:03:13;98749.19;;;20.54
78905;BMP280;68291;49.602;8.722;2023-07-28T03:06:09;98745.47;;;20.56
78905;BMP280;68291;49.602;8.722;2023-07-28T03:08:43;98741.19;;;20.55
78905;BMP280;68291;49.602;8.722;2023-07-28T03:11:48;98750.13;;;20.62
78905;BMP280;68291;49.602;8.722;2023-07-28T03:14:34;98750.81;;;20.64
78905;BMP280;68291;49.602;8.722;2023-07-28T03:17:05;98753.25;;;20.65
78905;BMP280;68291;49.602;8.722;2023-07-28T03:19:44;98734.31;;;20.54
78905;BMP280;68291;49.602;8.722;2023-07-28T03:22:30;98756.03;;;20.64
78905;BMP280;68291;49.602;8.722;2023-07-28T03:25:07;98752.56;;;20.63
78905;BMP280;68291;49.602;8.722;2023-07-28T03:28:02;98757.97;;;20.62
78905;BMP280;68291;49.602;8.722;2023-07-28T03:30:40;98749.16;;;20.63
78905;BMP280;68291;49.602;8.722;2023-07-28T03:33:11;98743.63;;;20.66
78905;BMP280;68291;49.602;8.722;2023-07-28T03:36:11;98740.16;;;20.65
78905;BMP280;68291;49.602;8.722;2023-07-28T03:39:13;98746.06;;;20.67
78905;BMP280;68291;49.602;8.722;2023-07-28T03:42:06;98741.03;;;20.66
78905;BMP280;68291;49.602;8.722;2023-07-28T03:44:56;98732.03;;;20.68
78905;BMP280;68291;49.602;8.722;2023-07-28T03:47:36;98739.44;;;20.73
78905;BMP280;68291;49.602;8.722;2023-07-28T03:50:10;98742.72;;;20.75
78905;BMP280;68291;49.602;8.722;2023-07-28T03:52:40;98744.34;;;20.76
78905;BMP280;68291;49.602;8.722;2023-07-28T03:55:35;98739.00;;;20.77
78905;BMP280;68291;49.602;8.722;2023-07-28T03:58:16;98744.88;;;20.79
78905;BMP280;68291;49.602;8.722;2023-07-28T04:00:54;98737.19;;;20.78
78905;BMP280;68291;49.602;8.722;2023-07-28T04:03:34;98740.78;;;20.77
78905;BMP280;68291;49.602;8.722;2023-07-28T04:06:16;98748.47;;;20.78
78905;BMP280;68291;49.602;8.722;2023-07-28T04:08:55;98748.31;;;20.80
78905;BMP280;68291;49.602;8.722;2023-07-28T04:11:35;98741.06;;;20.74
78905;BMP280;68291;49.602;8.722;2023-07-28T04:14:20;98744.44;;;20.84
78905;BMP280;68291;49.602;8.722;2023-07-28T04:16:51;98751.28;;;20.85
78905;BMP280;68291;49.602;8.722;2023-07-28T04:19:52;98744.56;;;20.82
78905;BMP280;68291;49.602;8.722;2023-07-28T04:22:41;98757.53;;;20.84
78905;BMP280;68291;49.602;8.722;2023-07-28T04:25:21;98753.91;;;20.85
78905;BMP280;68291;49.602;8.722;2023-07-28T04:28:22;98751.16;;;20.86
78905;BMP280;68291;49.602;8.722;2023-07-28T04:30:56;98760.81;;;20.86
78905;BMP280;68291;49.602;8.722;2023-07-28T04:33:52;98766.50;;;20.81
78905;BMP280;68291;49.602;8.722;2023-07-28T04:36:54;98759.47;;;20.82
78905;BMP280;68291;49.602;8.722;2023-07-28T04:39:32;98759.47;;;20.82
78905;BMP280;68291;49.602;8.722;2023-07-28T04:42:06;98761.28;;;20.81
78905;BMP280;68291;49.602;8.722;2023-07-28T04:45:09;98766.63;;;20.80
78905;BMP280;68291;49.602;8.722;2023-07-28T04:47:43;98773.81;;;20.78
78905;BMP280;68291;49.602;8.722;2023-07-28T04:50:24;98777.34;;;20.69
78905;BMP280;68291;49.602;8.722;2023-07-28T04:53:21;98774.50;;;20.62
78905;BMP280;68291;49.602;8.722;2023-07-28T04:56:05;98778.91;;;20.62
78905;BMP280;68291;49.602;8.722;2023-07-28T04:58:37;98778.91;;;20.62
78905;BMP280;68291;49.602;8.722;2023-07-28T05:01:51;98779.31;;;20.58
78905;BMP280;68291;49.602;8.722;2023-07-28T05:04:48;98780.84;;;20.60
78905;BMP280;68291;49.602;8.722;2023-07-28T05:07:20;98786.59;;;20.63
78905;BMP280;68291;49.602;8.722;2023-07-28T05:10:06;98785.09;;;20.61
78905;BMP280;68291;49.602;8.722;2023-07-28T05:12:49;98789.50;;;20.60
78905;BMP280;68291;49.602;8.722;2023-07-28T05:15:22;98780.84;;;20.60
78905;BMP280;68291;49.602;8.722;2023-07-28T05:18:06;98785.38;;;20.58
78905;BMP280;68291;49.602;8.722;2023-07-28T05:20:58;98781.09;;;20.57
78905;BMP280;68291;49.602;8.722;2023-07-28T05:23:52;98791.56;;;20.57
78905;BMP280;68291;49.602;8.722;2023-07-28T05:26:52;98792.69;;;20.55
78905;BMP280;68291;49.602;8.722;2023-07-28T05:29:24;98790.06;;;20.55
78905;BMP280;68291;49.602;8.722;2023-07-28T05:32:20;98787.88;;;20.60
78905;BMP280;68291;49.602;8.722;2023-07-28T05:35:22;98794.59;;;20.62
78905;BMP280;68291;49.602;8.722;2023-07-28T05:38:00;98789.06;;;20.65
78905;BMP280;68291;49.602;8.722;2023-07-28T05:40:38;98792.34;;;20.67
78905;BMP280;68291;49.602;8.722;2023-07-28T05:43:26;98788.09;;;20.66
78905;BMP280;68291;49.602;8.722;2023-07-28T05:45:59;98792.03;;;20.70
78905;BMP280;68291;49.602;8.722;2023-07-28T05:48:34;98791.47;;;20.76
78905;BMP280;68291;49.602;8.722;2023-07-28T05:51:12;98798.34;;;20.77
78905;BMP280;68291;49.602;8.722;2023-07-28T05:54:08;98794.22;;;20.74
78905;BMP280;68291;49.602;8.722;2023-07-28T05:56:51;98800.28;;;20.75
78905;BMP280;68291;49.602;8.722;2023-07-28T05:59:38;98794.22;;;20.74
78905;BMP280;68291;49.602;8.722;2023-07-28T06:02:10;98800.28;;;20.75
78905;BMP280;68291;49.602;8.722;2023-07-28T06:05:10;98796.47;;;20.69
78905;BMP280;68291;49.602;8.722;2023-07-28T06:08:18;98808.28;;;20.73
78905;BMP280;68291;49.602;8.722;2023-07-28T06:10:52;98804.41;;;20.77
78905;BMP280;68291;49.602;8.722;2023-07-28T06:13:49;98813.75;;;20.80
78905;BMP280;68291;49.602;8.722;2023-07-28T06:16:44;98818.66;;;20.83
78905;BMP280;68291;49.602;8.722;2023-07-28T06:19:34;98817.41;;;20.87
78905;BMP280;68291;49.602;8.722;2023-07-28T06:22:30;98821.22;;;20.92
78905;BMP280;68291;49.602;8.722;2023-07-28T06:25:30;98809.03;;;20.83
78905;BMP280;68291;49.602;8.722;2023-07-28T06:28:08;98823.31;;;20.89
78905;BMP280;68291;49.602;8.722;2023-07-28T06:30:39;98828.22;;;20.92
78905;BMP280;68291;49.602;8.722;2023-07-28T06:33:35;98839.69;;;20.91
78905;BMP280;68291;49.602;8.722;2023-07-28T06:36:31;98835.94;;;20.93
78905;BMP280;68291;49.602;8.722;2023-07-28T06:39:20;98842.00;;;20.93
78905;BMP280;68291;49.602;8.722;2023-07-28T06:42:11;98850.84;;;20.93
78905;BMP280;68291;49.602;8.722;2023-07-28T06:44:51;98856.59;;;20.96
78905;BMP280;68291;49.602;8.722;2023-07-28T06:47:39;98851.88;;;20.99
78905;BMP280;68291;49.602;8.722;2023-07-28T06:50:26;98858.78;;;21.00
78905;BMP280;68291;49.602;8.722;2023-07-28T06:52:56;98867.00;;;21.05
78905;BMP280;68291;49.602;8.722;2023-07-28T06:55:27;98869.84;;;21.12
78905;BMP280;68291;49.602;8.722;2023-07-28T06:58:33;98866.69;;;21.08
78905;BMP280;68291;49.602;8.722;2023-07-28T07:01:40;98871.09;;;21.08
78905;BMP280;68291;49.602;8.722;2023-07-28T07:04:21;98862.66;;;21.14
78905;BMP280;68291;49.602;8.722;2023-07-28T07:07:25;98856.53;;;21.05
78905;BMP280;68291;49.602;8.722;2023-07-28T07:10:24;98870.34;;;21.15
78905;BMP280;68291;49.602;8.722;2023-07-28T07:12:56;98870.50;;;21.14
78905;BMP280;68291;49.602;8.722;2023-07-28T07:15:37;98879.03;;;21.16
78905;BMP280;68291;49.602;8.722;2023-07-28T07:18:22;98879.84;;;21.16
78905;BMP280;68291;49.602;8.722;2023-07-28T07:21:04;98876.88;;;21.11
78905;BMP280;68291;49.602;8.722;2023-07-28T07:23:55;98886.34;;;21.12
78905;BMP280;68291;49.602;8.722;2023-07-28T07:26:31;98895.88;;;21.13
78905;BMP280;68291;49.602;8.722;2023-07-28T07:29:19;98895.03;;;21.13
78905;BMP280;68291;49.602;8.722;2023-07-28T07:32:20;98892.28;;;21.14
78905;BMP280;68291;49.602;8.722;2023-07-28T07:34:56;98900.50;;;21.19
78905;BMP280;68291;49.602;8.722;2023-07-28T07:37:40;98892.84;;;21.26
78905;BMP280;68291;49.602;8.722;2023-07-28T07:40:20;98904.91;;;21.36
78905;BMP280;68291;49.602;8.722;2023-07-28T07:42:55;98900.47;;;21.46
78905;BMP280;68291;49.602;8.722;2023-07-28T07:45:41;98898.28;;;21.59
78905;BMP280;68291;49.602;8.722;2023-07-28T07:48:23;98893.06;;;21.66
78905;BMP280;68291;49.602;8.722;2023-07-28T07:50:57;98896.38;;;21.68
78905;BMP280;68291;49.602;8.722;2023-07-28T07:53:42;98900.56;;;21.62
78905;BMP280;68291;49.602;8.722;2023-07-28T07:56:40;98902.06;;;21.64
78905;BMP280;68291;49.602;8.722;2023-07-28T07:59:16;98899.19;;;21.75
78905;BMP280;68291;49.602;8.722;2023-07-28T08:02:00;98907.47;;;21.88
78905;BMP280;68291;49.602;8.722;2023-07-28T08:04:57;98904.78;;;21.97
78905;BMP280;68291;49.602;8.722;2023-07-28T08:07:39;98907.44;;;22.05
78905;BMP280;68291;49.602;8.722;2023-07-28T08:10:35;98910.44;;;22.10
78905;BMP280;68291;49.602;8.722;2023-07-28T08:13:21;98906.53;;;22.14
78905;BMP280;68291;49.602;8.722;2023-07-28T08:15:52;98906.44;;;22.23
78905;BMP280;68291;49.602;8.722;2023-07-28T08:18:44;98911.16;;;22.20
78905;BMP280;68291;49.602;8.722;2023-07-28T08:21:38;98912.50;;;22.24
78905;BMP280;68291;49.602;8.722;2023-07-28T08:24:33;98918.09;;;22.29
78905;BMP280;68291;49.602;8.722;2023-07-28T08:27:23;98912.38;;;22.33
78905;BMP280;68291;49.602;8.722;2023-07-28T08:30:12;98910.13;;;22.38
78905;BMP280;68291;49.602;8.722;2023-07-28T08:32:54;98915.72;;;22.43
78905;BMP280;68291;49.602;8.722;2023-07-28T08:35:37;98910.94;;;22.38
78905;BMP280;68291;49.602;8.722;2023-07-28T08:38:19;98912.06;;;22.36
78905;BMP280;68291;49.602;8.722;2023-07-28T08:41:00;98923.03;;;22.32
78905;BMP280;68291;49.602;8.722;2023-07-28T08:43:38;98918.41;;;22.26
78905;BMP280;68291;49.602;8.722;2023-07-28T08:46:18;98916.09;;;22.23
78905;BMP280;68291;49.602;8.722;2023-07-28T08:48:55;98924.00;;;22.31
78905;BMP280;68291;49.602;8.722;2023-07-28T08:51:32;98926.97;;;22.35
78905;BMP280;68291;49.602;8.722;2023-07-28T08:54:21;98917.53;;;22.42
78905;BMP280;68291;49.602;8.722;2023-07-28T08:57:06;98929.69;;;22.51
78905;BMP280;68291;49.602;8.722;2023-07-28T08:59:52;98939.72;;;22.56
78905;BMP280;68291;49.602;8.722;2023-07-28T09:02:51;98932.81;;;22.55
78905;BMP280;68291;49.602;8.722;2023-07-28T09:05:37;98919.28;;;22.42
78905;BMP280;68291;49.602;8.722;2023-07-28T09:08:10;98927.16;;;22.42
78905;BMP280;68291;49.602;8.722;2023-07-28T09:11:09;98934.13;;;22.51
78905;BMP280;68291;49.602;8.722;2023-07-28T09:13:44;98930.84;;;22.57
78905;BMP280;68291;49.602;8.722;2023-07-28T09:16:30;98927.88;;;22.52
78905;BMP280;68291;49.602;8.722;2023-07-28T09:19:11;98932.59;;;22.48
78905;BMP280;68291;49.602;8.722;2023-07-28T09:22:07;98925.22;;;22.44
78905;BMP280;68291;49.602;8.722;2023-07-28T09:24:51;98930.16;;;22.47
78905;BMP280;68291;49.602;8.722;2023-07-28T09:28:05;98940.13;;;22.43
78905;BMP280;68291;49.602;8.722;2023-07-28T09:30:57;98938.50;;;22.42
78905;BMP280;68291;49.602;8.722;2023-07-28T09:33:34;98945.38;;;22.43
78905;BMP280;68291;49.602;8.722;2023-07-28T09:36:16;98929.34;;;22.46
78905;BMP280;68291;49.602;8.722;2023-07-28T09:39:02;98940.84;;;22.53
78905;BMP280;68291;49.602;8.722;2023-07-28T09:42:01;98936.13;;;22.65
78905;BMP280;68291;49.602;8.722;2023-07-28T09:45:11;98933.22;;;22.75
78905;BMP280;68291;49.602;8.722;2023-07-28T09:48:05;98941.19;;;22.91
78905;BMP280;68291;49.602;8.722;2023-07-28T09:51:12;98944.47;;;22.93
78905;BMP280;68291;49.602;8.722;2023-07-28T09:54:01;98943.31;;;22.96
78905;BMP280;68291;49.602;8.722;2023-07-28T09:56:50;98946.13;;;23.02
78905;BMP280;68291;49.602;8.722;2023-07-28T09:59:32;98939.09;;;23.02
78905;BMP280;68291;49.602;8.722;2023-07-28T10:02:32;98941.06;;;23.01
78905;BMP280;68291;49.602;8.722;2023-07-28T10:05:10;98939.78;;;23.04
78905;BMP280;68291;49.602;8.722;2023-07-28T10:08:04;98938.13;;;23.11
78905;BMP280;68291;49.602;8.722;2023-07-28T10:11:04;98940.31;;;23.32
78905;BMP280;68291;49.602;8.722;2023-07-28T10:13:55;98947.44;;;23.55
78905;BMP280;68291;49.602;8.722;2023-07-28T10:16:43;98947.59;;;23.77
78905;BMP280;68291;49.602;8.722;2023-07-28T10:19:35;98949.56;;;23.91
78905;BMP280;68291;49.602;8.722;2023-07-28T10:22:12;98942.00;;;24.04
78905;BMP280;68291;49.602;8.722;2023-07-28T10:25:08;98950.00;;;24.18
78905;BMP280;68291;49.602;8.722;2023-07-28T10:28:00;98950.03;;;24.26
78905;BMP280;68291;49.602;8.722;2023-07-28T10:30:53;98955.31;;;24.26
78905;BMP280;68291;49.602;8.722;2023-07-28T10:33:33;98962.22;;;24.27
78905;BMP280;68291;49.602;8.722;2023-07-28T10:36:34;98965.13;;;24.40
78905;BMP280;68291;49.602;8.722;2023-07-28T10:39:30;98951.78;;;24.49
78905;BMP280;68291;49.602;8.722;2023-07-28T10:42:09;98951.31;;;24.45
78905;BMP280;68291;49.602;8.722;2023-07-28T10:45:05;98953.44;;;24.50
78905;BMP280;68291;49.602;8.722;2023-07-28T10:47:47;98945.72;;;24.48
78905;BMP280;68291;49.602;8.722;2023-07-28T10:50:32;98952.59;;;24.49
78905;BMP280;68291;49.602;8.722;2023-07-28T10:53:20;98953.13;;;24.45
78905;BMP280;68291;49.602;8.722;2023-07-28T10:56:16;98957.22;;;24.40
78905;BMP280;68291;49.602;8.722;2023-07-28T10:59:15;98960.22;;;24.29
78905;BMP280;68291;49.602;8.722;2023-07-28T11:01:54;98961.19;;;24.20
78905;BMP280;68291;49.602;8.722;2023-07-28T11:04:30;98965.47;;;24.13
78905;BMP280;68291;49.602;8.722;2023-07-28T11:07:16;98961.38;;;24.10
78905;BMP280;68291;49.602;8.722;2023-07-28T11:09:54;98957.94;;;24.10
78905;BMP280;68291;49.602;8.722;2023-07-28T11:12:26;98961.88;;;24.14
78905;BMP280;68291;49.602;8.722;2023-07-28T11:15:13;98966.84;;;24.25
78905;BMP280;68291;49.602;8.722;2023-07-28T11:17:47;98957.22;;;24.40
78905;BMP280;68291;49.602;8.722;2023-07-28T11:20:32;98948.50;;;24.47
78905;BMP280;68291;49.602;8.722;2023-07-28T11:23:15;98957.00;;;24.65
78905;BMP280;68291;49.602;8.722;2023-07-28T11:26:23;98952.88;;;24.70
78905;BMP280;68291;49.602;8.722;2023-07-28T11:29:18;98954.63;;;24.85
78905;BMP280;68291;49.602;8.722;2023-07-28T11:32:10;98950.47;;;24.99
78905;BMP280;68291;49.602;8.722;2023-07-28T11:35:13;98951.78;;;25.03
78905;BMP280;68291;49.602;8.722;2023-07-28T11:38:00;98950.47;;;24.99
78905;BMP280;68291;49.602;8.722;2023-07-28T11:40:45;98953.41;;;25.04
78905;BMP280;68291;49.602;8.722;2023-07-28T11:43:52;98958.50;;;25.05
78905;BMP280;68291;49.602;8.722;2023-07-28T11:46:38;98956.03;;;25.04
78905;BMP280;68291;49.602;8.722;2023-07-28T11:49:14;98955.88;;;25.05
78905;BMP280;68291;49.602;8.722;2023-07-28T11:51:52;98951.09;;;25.09
78905;BMP280;68291;49.602;8.722;2023-07-28T11:54:38;98964.06;;;25.10
78905;BMP280;68291;49.602;8.722;2023-07-28T11:57:34;98966.41;;;25.05
78905;BMP280;68291;49.602;8.722;2023-07-28T12:00:40;98959.69;;;24.95
78905;BMP280;68291;49.602;8.722;2023-07-28T12:03:17;98963.00;;;24.89
78905;BMP280;68291;49.602;8.722;2023-07-28T12:06:09;98959.41;;;24.82
78905;BMP280;68291;49.602;8.722;2023-07-28T12:09:07;98952.66;;;24.79
78905;BMP280;68291;49.602;8.722;2023-07-28T12:11:54;98959.88;;;24.85
78905;BMP280;68291;49.602;8.722;2023-07-28T12:14:35;98958.06;;;24.94
78905;BMP280;68291;49.602;8.722;2023-07-28T12:17:14;98963.00;;;24.97
78905;BMP280;68291;49.602;8.722;2023-07-28T12:20:08;98964.34;;;24.85
78905;BMP280;68291;49.602;8.722;2023-07-28T12:22:49;98962.69;;;24.84
78905;BMP280;68291;49.602;8.722;2023-07-28T12:25:43;98971.59;;;24.83
78905;BMP280;68291;49.602;8.722;2023-07-28T12:28:25;98980.81;;;24.79
78905;BMP280;68291;49.602;8.722;2023-07-28T12:31:20;98981.84;;;24.70
78905;BMP280;68291;49.602;8.722;2023-07-28T12:34:26;98981.06;;;24.54
78905;BMP280;68291;49.602;8.722;2023-07-28T12:37:24;98976.34;;;24.34
78905;BMP280;68291;49.602;8.722;2023-07-28T12:40:14;98974.72;;;24.25
78905;BMP280;68291;49.602;8.722;2023-07-28T12:42:49;98971.72;;;24.20
78905;BMP280;68291;49.602;8.722;2023-07-28T12:45:38;98973.38;;;24.13
78905;BMP280;68291;49.602;8.722;2023-07-28T12:48:22;98982.13;;;24.06
78905;BMP280;68291;49.602;8.722;2023-07-28T12:51:21;98976.50;;;24.01
78905;BMP280;68291;49.602;8.722;2023-07-28T12:54:15;98983.28;;;23.95
78905;BMP280;68291;49.602;8.722;2023-07-28T12:57:03;98984.72;;;23.90
78905;BMP280;68291;49.602;8.722;2023-07-28T12:59:44;98985.41;;;23.84
78905;BMP280;68291;49.602;8.722;2023-07-28T13:02:39;98980.97;;;23.76
78905;BMP280;68291;49.602;8.722;2023-07-28T13:05:37;98978.31;;;23.69
78905;BMP280;68291;49.602;8.722;2023-07-28T13:08:20;98985.72;;;23.65
78905;BMP280;68291;49.602;8.722;2023-07-28T13:11:02;98987.84;;;23.62
78905;BMP280;68291;49.602;8.722;2023-07-28T13:14:03;98990.00;;;23.58
78905;BMP280;68291;49.602;8.722;2023-07-28T13:16:54;98990.75;;;23.51
78905;BMP280;68291;49.602;8.722;2023-07-28T13:19:42;98994.34;;;23.42
78905;BMP280;68291;49.602;8.722;2023-07-28T13:22:17;98992.69;;;23.33
78905;BMP280;68291;49.602;8.722;2023-07-28T13:25:37;98985.41;;;23.19
78905;BMP280;68291;49.602;8.722;2023-07-28T13:28:20;98987.56;;;23.16
78905;BMP280;68291;49.602;8.722;2023-07-28T13:31:07;98988.38;;;23.16
78905;BMP280;68291;49.602;8.722;2023-07-28T13:34:01;98980.97;;;23.12
78905;BMP280;68291;49.602;8.722;2023-07-28T13:36:50;98986.38;;;23.10
78905;BMP280;68291;49.602;8.722;2023-07-28T13:39:47;98983.41;;;23.05
78905;BMP280;68291;49.602;8.722;2023-07-28T13:42:35;98984.91;;;23.08
78905;BMP280;68291;49.602;8.722;2023-07-28T13:45:19;98988.34;;;23.08
78905;BMP280;68291;49.602;8.722;2023-07-28T13:47:50;98995.25;;;23.09
78905;BMP280;68291;49.602;8.722;2023-07-28T13:50:39;98987.84;;;23.05
78905;BMP280;68291;49.602;8.722;2023-07-28T13:53:27;98984.38;;;22.97
78905;BMP280;68291;49.602;8.722;2023-07-28T13:56:16;98986.97;;;22.89
78905;BMP280;68291;49.602;8.722;2023-07-28T13:59:13;99000.75;;;22.91
78905;BMP280;68291;49.602;8.722;2023-07-28T14:01:52;98995.03;;;22.87
78905;BMP280;68291;49.602;8.722;2023-07-28T14:04:45;98991.84;;;22.84
78905;BMP280;68291;49.602;8.722;2023-07-28T14:07:41;99005.97;;;22.83
78905;BMP280;68291;49.602;8.722;2023-07-28T14:10:37;99001.00;;;22.80
78905;BMP280;68291;49.602;8.722;2023-07-28T14:13:10;99004.63;;;22.79
78905;BMP280;68291;49.602;8.722;2023-07-28T14:15:45;99010.34;;;22.74
78905;BMP280;68291;49.602;8.722;2023-07-28T14:18:27;99003.91;;;22.69
78905;BMP280;68291;49.602;8.722;2023-07-28T14:21:00;99013.59;;;22.68
78905;BMP280;68291;49.602;8.722;2023-07-28T14:23:46;99010.44;;;22.65
78905;BMP280;68291;49.602;8.722;2023-07-28T14:26:33;99012.25;;;22.65
78905;BMP280;68291;49.602;8.722;2023-07-28T14:29:05;99012.25;;;22.65
78905;BMP280;68291;49.602;8.722;2023-07-28T14:32:32;99010.91;;;22.61
78905;BMP280;68291;49.602;8.722;2023-07-28T14:35:26;99016.63;;;22.56
78905;BMP280;68291;49.602;8.722;2023-07-28T14:38:12;99014.16;;;22.55
78905;BMP280;68291;49.602;8.722;2023-07-28T14:41:01;98983.78;;;22.44
78905;BMP280;68291;49.602;8.722;2023-07-28T14:43:45;99014.06;;;22.64
78905;BMP280;68291;49.602;8.722;2023-07-28T14:46:22;99007.34;;;22.62
78905;BMP280;68291;49.602;8.722;2023-07-28T14:49:23;99009.56;;;22.57
78905;BMP280;68291;49.602;8.722;2023-07-28T14:52:01;99016.97;;;22.61
78905;BMP280;68291;49.602;8.722;2023-07-28T14:54:47;99014.22;;;22.63
78905;BMP280;68291;49.602;8.722;2023-07-28T14:57:18;99015.03;;;22.63
78905;BMP280;68291;49.602;8.722;2023-07-28T15:00:24;99010.44;;;22.65
78905;BMP280;68291;49.602;8.722;2023-07-28T15:03:20;99009.44;;;22.58
78905;BMP280;68291;49.602;8.722;2023-07-28T15:06:18;99003.97;;;22.52
78905;BMP280;68291;49.602;8.722;2023-07-28T15:09:14;99009.38;;;22.50
78905;BMP280;68291;49.602;8.722;2023-07-28T15:12:06;99004.31;;;22.49
78905;BMP280;68291;49.602;8.722;2023-07-28T15:14:47;99006.59;;;22.52
78905;BMP280;68291;49.602;8.722;2023-07-28T15:17:17;99008.56;;;22.50
78905;BMP280;68291;49.602;8.722;2023-07-28T15:20:18;99012.19;;;22.49
78905;BMP280;68291;49.602;8.722;2023-07-28T15:23:08;99001.47;;;22.42
78905;BMP280;68291;49.602;8.722;2023-07-28T15:26:01;99005.88;;;22.42
78905;BMP280;68291;49.602;8.722;2023-07-28T15:28:57;99007.00;;;22.39
78905;BMP280;68291;49.602;8.722;2023-07-28T15:31:30;99005.19;;;22.32
78905;BMP280;68291;49.602;8.722;2023-07-28T15:34:20;99012.50;;;22.29
78905;BMP280;68291;49.602;8.722;2023-07-28T15:36:54;99015.00;;;22.30
78905;BMP280;68291;49.602;8.722;2023-07-28T15:39:40;99014.84;;;22.32
78905;BMP280;68291;49.602;8.722;2023-07-28T15:42:36;99008.47;;;22.34
78905;BMP280;68291;49.602;8.722;2023-07-28T15:45:32;99001.09;;;22.37
78905;BMP280;68291;49.602;8.722;2023-07-28T15:48:22;99007.00;;;22.39
78905;BMP280;68291;49.602;8.722;2023-07-28T15:51:02;99003.22;;;22.34
78905;BMP280;68291;49.602;8.722;2023-07-28T15:53:45;99015.81;;;22.31
78905;BMP280;68291;49.602;8.722;2023-07-28T15:56:28;99011.84;;;22.27
78905;BMP280;68291;49.602;8.722;2023-07-28T15:59:06;99014.00;;;22.31
78905;BMP280;68291;49.602;8.722;2023-07-28T16:01:37;99014.84;;;22.32